sensor_id;sensor_type;location;lat;lon;timestamp;P1;durP1;ratioP1;P2;durP2;ratioP2
74900;SDS011;63461;51.416;6.758;2023-01-23T00:01:49;49.20;;;18.20;;
74900;SDS011;63461;51.416;6.758;2023-01-23T00:04:15;44.90;;;17.63;;
74900;SDS011;63461;51.416;6.758;2023-01-23T00:06:41;46.27;;;19.00;;
74900;SDS011;63461;51.416;6.758;2023-01-23T00:09:07;40.67;;;16.70;;
74900;SDS011;63461;51.416;6.758;2023-01-23T00:11:34;40.97;;;17.20;;
74900;SDS011;63461;51.416;6.758;2023-01-23T00:14:00;43.27;;;17.53;;
74900;SDS011;63461;51.416;6.758;2023-01-23T00:16:28;43.20;;;16.97;;
74900;SDS011;63461;51.416;6.758;2023-01-23T00:18:56;41.53;;;16.43;;
74900;SDS011;63461;51.416;6.758;2023-01-23T00:21:23;41.10;;;17.20;;
74900;SDS011;63461;51.416;6.758;2023-01-23T00:23:53;39.50;;;16.43;;
74900;SDS011;63461;51.416;6.758;2023-01-23T00:26:20;41.23;;;16.43;;
74900;SDS011;63461;51.416;6.758;2023-01-23T00:28:48;42.30;;;17.70;;
74900;SDS011;63461;51.416;6.758;2023-01-23T00:31:16;44.37;;;16.00;;
74900;SDS011;63461;51.416;6.758;2023-01-23T00:33:44;42.40;;;16.60;;
74900;SDS011;63461;51.416;6.758;2023-01-23T00:36:11;43.13;;;15.67;;
74900;SDS011;63461;51.416;6.758;2023-01-23T00:38:38;44.80;;;16.90;;
74900;SDS011;63461;51.416;6.758;2023-01-23T00:41:04;40.60;;;17.13;;
74900;SDS011;63461;51.416;6.758;2023-01-23T00:43:31;39.53;;;16.90;;
74900;SDS011;63461;51.416;6.758;2023-01-23T00:45:57;43.50;;;17.37;;
74900;SDS011;63461;51.416;6.758;2023-01-23T00:48:23;39.80;;;15.87;;
74900;SDS011;63461;51.416;6.758;2023-01-23T00:50:49;40.53;;;16.33;;
74900;SDS011;63461;51.416;6.758;2023-01-23T00:53:15;47.43;;;18.00;;
74900;SDS011;63461;51.416;6.758;2023-01-23T00:55:41;40.53;;;16.07;;
74900;SDS011;63461;51.416;6.758;2023-01-23T00:58:07;44.97;;;17.47;;
74900;SDS011;63461;51.416;6.758;2023-01-23T01:00:34;42.53;;;17.37;;
74900;SDS011;63461;51.416;6.758;2023-01-23T01:03:01;47.17;;;17.77;;
74900;SDS011;63461;51.416;6.758;2023-01-23T01:05:30;43.07;;;18.13;;
74900;SDS011;63461;51.416;6.758;2023-01-23T01:07:56;44.80;;;17.97;;
74900;SDS011;63461;51.416;6.758;2023-01-23T01:10:22;43.37;;;17.50;;
74900;SDS011;63461;51.416;6.758;2023-01-23T01:12:55;40.87;;;17.70;;
74900;SDS011;63461;51.416;6.758;2023-01-23T01:15:21;43.77;;;16.90;;
74900;SDS011;63461;51.416;6.758;2023-01-23T01:17:48;45.37;;;17.97;;
74900;SDS011;63461;51.416;6.758;2023-01-23T01:20:14;40.70;;;17.63;;
74900;SDS011;63461;51.416;6.758;2023-01-23T01:22:40;42.17;;;17.83;;
74900;SDS011;63461;51.416;6.758;2023-01-23T01:25:06;41.03;;;16.53;;
74900;SDS011;63461;51.416;6.758;2023-01-23T01:27:32;46.83;;;16.03;;
74900;SDS011;63461;51.416;6.758;2023-01-23T01:29:58;41.43;;;16.70;;
74900;SDS011;63461;51.416;6.758;2023-01-23T01:32:24;39.80;;;17.27;;
74900;SDS011;63461;51.416;6.758;2023-01-23T01:34:50;42.53;;;17.13;;
74900;SDS011;63461;51.416;6.758;2023-01-23T01:37:16;39.50;;;16.87;;
74900;SDS011;63461;51.416;6.758;2023-01-23T01:39:42;43.17;;;17.73;;
74900;SDS011;63461;51.416;6.758;2023-01-23T01:42:08;38.10;;;16.93;;
74900;SDS011;63461;51.416;6.758;2023-01-23T01:47:26;38.33;;;14.13;;
74900;SDS011;63461;51.416;6.758;2023-01-23T01:49:55;34.07;;;14.37;;
74900;SDS011;63461;51.416;6.758;2023-01-23T01:52:26;39.27;;;14.80;;
74900;SDS011;63461;51.416;6.758;2023-01-23T01:54:54;33.17;;;14.33;;
74900;SDS011;63461;51.416;6.758;2023-01-23T01:57:35;33.60;;;13.27;;
74900;SDS011;63461;51.416;6.758;2023-01-23T02:00:10;35.77;;;14.20;;
74900;SDS011;63461;51.416;6.758;2023-01-23T02:05:21;33.03;;;12.97;;
74900;SDS011;63461;51.416;6.758;2023-01-23T02:07:52;27.67;;;12.87;;
74900;SDS011;63461;51.416;6.758;2023-01-23T02:10:25;28.63;;;12.93;;
74900;SDS011;63461;51.416;6.758;2023-01-23T02:12:51;25.47;;;11.30;;
74900;SDS011;63461;51.416;6.758;2023-01-23T02:15:19;27.57;;;11.90;;
74900;SDS011;63461;51.416;6.758;2023-01-23T02:17:47;28.60;;;10.93;;
74900;SDS011;63461;51.416;6.758;2023-01-23T02:20:24;25.90;;;12.33;;
74900;SDS011;63461;51.416;6.758;2023-01-23T02:28:13;30.33;;;12.03;;
74900;SDS011;63461;51.416;6.758;2023-01-23T02:30:41;27.37;;;11.30;;
74900;SDS011;63461;51.416;6.758;2023-01-23T02:33:40;27.10;;;12.57;;
74900;SDS011;63461;51.416;6.758;2023-01-23T02:36:00;30.90;;;12.67;;
74900;SDS011;63461;51.416;6.758;2023-01-23T02:38:43;28.57;;;12.50;;
74900;SDS011;63461;51.416;6.758;2023-01-23T02:41:26;31.57;;;13.00;;
74900;SDS011;63461;51.416;6.758;2023-01-23T02:43:59;27.17;;;12.43;;
74900;SDS011;63461;51.416;6.758;2023-01-23T02:46:27;30.47;;;13.57;;
74900;SDS011;63461;51.416;6.758;2023-01-23T02:48:53;31.20;;;12.93;;
74900;SDS011;63461;51.416;6.758;2023-01-23T02:51:19;29.77;;;11.93;;
74900;SDS011;63461;51.416;6.758;2023-01-23T02:53:47;28.10;;;12.73;;
74900;SDS011;63461;51.416;6.758;2023-01-23T02:56:13;31.07;;;13.10;;
74900;SDS011;63461;51.416;6.758;2023-01-23T02:58:40;30.80;;;13.50;;
74900;SDS011;63461;51.416;6.758;2023-01-23T03:01:26;29.27;;;12.37;;
74900;SDS011;63461;51.416;6.758;2023-01-23T03:03:52;28.90;;;12.50;;
74900;SDS011;63461;51.416;6.758;2023-01-23T03:06:21;33.23;;;13.47;;
74900;SDS011;63461;51.416;6.758;2023-01-23T03:08:49;27.07;;;12.77;;
74900;SDS011;63461;51.416;6.758;2023-01-23T03:11:16;26.33;;;11.70;;
74900;SDS011;63461;51.416;6.758;2023-01-23T03:13:44;33.03;;;14.07;;
74900;SDS011;63461;51.416;6.758;2023-01-23T03:16:11;30.53;;;13.10;;
74900;SDS011;63461;51.416;6.758;2023-01-23T03:18:37;24.97;;;10.80;;
74900;SDS011;63461;51.416;6.758;2023-01-23T03:21:03;33.53;;;12.80;;
74900;SDS011;63461;51.416;6.758;2023-01-23T03:23:31;27.23;;;12.27;;
74900;SDS011;63461;51.416;6.758;2023-01-23T03:25:57;27.97;;;12.93;;
74900;SDS011;63461;51.416;6.758;2023-01-23T03:28:27;31.87;;;13.90;;
74900;SDS011;63461;51.416;6.758;2023-01-23T03:31:12;26.27;;;11.93;;
74900;SDS011;63461;51.416;6.758;2023-01-23T03:33:39;29.50;;;13.17;;
74900;SDS011;63461;51.416;6.758;2023-01-23T03:36:08;31.73;;;13.43;;
74900;SDS011;63461;51.416;6.758;2023-01-23T03:38:35;29.60;;;13.50;;
74900;SDS011;63461;51.416;6.758;2023-01-23T03:41:04;28.30;;;12.83;;
74900;SDS011;63461;51.416;6.758;2023-01-23T03:43:49;33.63;;;13.43;;
74900;SDS011;63461;51.416;6.758;2023-01-23T03:46:15;26.07;;;11.57;;
74900;SDS011;63461;51.416;6.758;2023-01-23T03:48:41;28.77;;;12.83;;
74900;SDS011;63461;51.416;6.758;2023-01-23T03:51:07;31.40;;;13.03;;
74900;SDS011;63461;51.416;6.758;2023-01-23T03:53:33;27.77;;;13.30;;
74900;SDS011;63461;51.416;6.758;2023-01-23T03:55:59;30.87;;;13.83;;
74900;SDS011;63461;51.416;6.758;2023-01-23T03:58:26;28.00;;;12.27;;
74900;SDS011;63461;51.416;6.758;2023-01-23T04:00:52;29.60;;;12.10;;
74900;SDS011;63461;51.416;6.758;2023-01-23T04:03:18;31.00;;;12.63;;
74900;SDS011;63461;51.416;6.758;2023-01-23T04:05:45;29.83;;;12.80;;
74900;SDS011;63461;51.416;6.758;2023-01-23T04:08:11;27.43;;;12.03;;
74900;SDS011;63461;51.416;6.758;2023-01-23T04:10:36;27.30;;;12.37;;
74900;SDS011;63461;51.416;6.758;2023-01-23T04:13:09;27.10;;;12.03;;
74900;SDS011;63461;51.416;6.758;2023-01-23T04:15:34;26.90;;;11.97;;
74900;SDS011;63461;51.416;6.758;2023-01-23T04:18:03;27.40;;;12.27;;
74900;SDS011;63461;51.416;6.758;2023-01-23T04:20:29;27.77;;;12.80;;
74900;SDS011;63461;51.416;6.758;2023-01-23T04:22:56;26.67;;;12.53;;
74900;SDS011;63461;51.416;6.758;2023-01-23T04:25:22;30.87;;;12.80;;
74900;SDS011;63461;51.416;6.758;2023-01-23T04:27:48;31.00;;;12.87;;
74900;SDS011;63461;51.416;6.758;2023-01-23T04:30:14;29.43;;;13.13;;
74900;SDS011;63461;51.416;6.758;2023-01-23T04:32:40;29.50;;;13.70;;
74900;SDS011;63461;51.416;6.758;2023-01-23T04:35:06;29.40;;;13.50;;
74900;SDS011;63461;51.416;6.758;2023-01-23T04:37:35;29.73;;;12.93;;
74900;SDS011;63461;51.416;6.758;2023-01-23T04:40:01;29.07;;;12.70;;
74900;SDS011;63461;51.416;6.758;2023-01-23T04:42:33;30.53;;;12.33;;
74900;SDS011;63461;51.416;6.758;2023-01-23T04:45:03;27.93;;;13.07;;
74900;SDS011;63461;51.416;6.758;2023-01-23T04:47:58;27.93;;;13.13;;
74900;SDS011;63461;51.416;6.758;2023-01-23T04:50:24;32.20;;;13.33;;
74900;SDS011;63461;51.416;6.758;2023-01-23T04:52:50;32.57;;;13.80;;
74900;SDS011;63461;51.416;6.758;2023-01-23T04:55:17;29.33;;;12.93;;
74900;SDS011;63461;51.416;6.758;2023-01-23T04:57:42;31.53;;;12.70;;
74900;SDS011;63461;51.416;6.758;2023-01-23T05:00:16;28.37;;;13.13;;
74900;SDS011;63461;51.416;6.758;2023-01-23T05:02:44;31.10;;;14.03;;
74900;SDS011;63461;51.416;6.758;2023-01-23T05:05:14;34.17;;;14.53;;
74900;SDS011;63461;51.416;6.758;2023-01-23T05:07:42;41.13;;;17.10;;
74900;SDS011;63461;51.416;6.758;2023-01-23T05:10:12;32.80;;;14.17;;
74900;SDS011;63461;51.416;6.758;2023-01-23T05:12:40;28.67;;;11.93;;
74900;SDS011;63461;51.416;6.758;2023-01-23T05:15:07;36.70;;;14.40;;
74900;SDS011;63461;51.416;6.758;2023-01-23T05:17:36;31.30;;;13.97;;
74900;SDS011;63461;51.416;6.758;2023-01-23T05:20:03;37.20;;;14.80;;
74900;SDS011;63461;51.416;6.758;2023-01-23T05:22:30;31.00;;;13.43;;
74900;SDS011;63461;51.416;6.758;2023-01-23T05:24:57;32.30;;;13.70;;
74900;SDS011;63461;51.416;6.758;2023-01-23T05:27:26;33.77;;;14.73;;
74900;SDS011;63461;51.416;6.758;2023-01-23T05:29:58;28.20;;;12.27;;
74900;SDS011;63461;51.416;6.758;2023-01-23T05:32:27;37.00;;;17.58;;
74900;SDS011;63461;51.416;6.758;2023-01-23T05:35:31;33.93;;;14.73;;
74900;SDS011;63461;51.416;6.758;2023-01-23T05:38:04;35.90;;;14.83;;
74900;SDS011;63461;51.416;6.758;2023-01-23T05:40:33;35.33;;;18.33;;
74900;SDS011;63461;51.416;6.758;2023-01-23T05:43:14;32.40;;;14.83;;
74900;SDS011;63461;51.416;6.758;2023-01-23T05:45:59;30.80;;;13.73;;
74900;SDS011;63461;51.416;6.758;2023-01-23T05:48:33;30.10;;;13.33;;
74900;SDS011;63461;51.416;6.758;2023-01-23T05:51:02;30.20;;;13.43;;
74900;SDS011;63461;51.416;6.758;2023-01-23T05:53:28;31.17;;;13.77;;
74900;SDS011;63461;51.416;6.758;2023-01-23T05:55:54;32.07;;;13.83;;
74900;SDS011;63461;51.416;6.758;2023-01-23T05:58:21;33.23;;;13.30;;
74900;SDS011;63461;51.416;6.758;2023-01-23T06:01:12;33.23;;;14.40;;
74900;SDS011;63461;51.416;6.758;2023-01-23T06:03:56;33.97;;;14.10;;
74900;SDS011;63461;51.416;6.758;2023-01-23T06:06:42;34.53;;;14.90;;
74900;SDS011;63461;51.416;6.758;2023-01-23T06:09:08;32.17;;;13.50;;
74900;SDS011;63461;51.416;6.758;2023-01-23T06:11:36;37.03;;;15.50;;
74900;SDS011;63461;51.416;6.758;2023-01-23T06:14:03;31.17;;;14.37;;
74900;SDS011;63461;51.416;6.758;2023-01-23T06:16:29;34.30;;;14.50;;
74900;SDS011;63461;51.416;6.758;2023-01-23T06:18:56;32.10;;;13.10;;
74900;SDS011;63461;51.416;6.758;2023-01-23T06:21:22;35.97;;;16.50;;
74900;SDS011;63461;51.416;6.758;2023-01-23T06:23:48;33.37;;;15.10;;
74900;SDS011;63461;51.416;6.758;2023-01-23T06:26:15;35.90;;;16.00;;
74900;SDS011;63461;51.416;6.758;2023-01-23T06:28:42;41.57;;;16.20;;
74900;SDS011;63461;51.416;6.758;2023-01-23T06:31:07;37.03;;;16.33;;
74900;SDS011;63461;51.416;6.758;2023-01-23T06:33:51;35.33;;;15.83;;
74900;SDS011;63461;51.416;6.758;2023-01-23T06:36:21;37.30;;;15.93;;
74900;SDS011;63461;51.416;6.758;2023-01-23T06:38:47;38.57;;;16.53;;
74900;SDS011;63461;51.416;6.758;2023-01-23T06:41:14;39.30;;;16.90;;
74900;SDS011;63461;51.416;6.758;2023-01-23T06:43:49;40.73;;;16.37;;
74900;SDS011;63461;51.416;6.758;2023-01-23T06:46:20;47.43;;;18.83;;
74900;SDS011;63461;51.416;6.758;2023-01-23T06:48:45;39.40;;;17.40;;
74900;SDS011;63461;51.416;6.758;2023-01-23T06:51:12;54.03;;;20.57;;
74900;SDS011;63461;51.416;6.758;2023-01-23T06:53:41;40.27;;;16.47;;
74900;SDS011;63461;51.416;6.758;2023-01-23T06:56:07;39.03;;;16.27;;
74900;SDS011;63461;51.416;6.758;2023-01-23T06:58:35;43.47;;;17.10;;
74900;SDS011;63461;51.416;6.758;2023-01-23T07:01:07;39.83;;;16.33;;
74900;SDS011;63461;51.416;6.758;2023-01-23T07:03:52;43.53;;;16.73;;
74900;SDS011;63461;51.416;6.758;2023-01-23T07:06:18;39.37;;;17.10;;
74900;SDS011;63461;51.416;6.758;2023-01-23T07:08:44;41.93;;;17.70;;
74900;SDS011;63461;51.416;6.758;2023-01-23T07:11:10;63.33;;;21.77;;
74900;SDS011;63461;51.416;6.758;2023-01-23T07:13:36;43.03;;;17.17;;
74900;SDS011;63461;51.416;6.758;2023-01-23T07:16:03;43.00;;;17.40;;
74900;SDS011;63461;51.416;6.758;2023-01-23T07:18:30;49.40;;;19.07;;
74900;SDS011;63461;51.416;6.758;2023-01-23T07:20:57;45.87;;;17.70;;
74900;SDS011;63461;51.416;6.758;2023-01-23T07:23:22;42.40;;;16.80;;
74900;SDS011;63461;51.416;6.758;2023-01-23T07:25:48;41.43;;;16.57;;
74900;SDS011;63461;51.416;6.758;2023-01-23T07:28:14;41.30;;;16.97;;
74900;SDS011;63461;51.416;6.758;2023-01-23T07:30:40;42.43;;;16.67;;
74900;SDS011;63461;51.416;6.758;2023-01-23T07:33:06;38.33;;;14.80;;
74900;SDS011;63461;51.416;6.758;2023-01-23T07:35:32;38.57;;;15.77;;
74900;SDS011;63461;51.416;6.758;2023-01-23T07:37:57;38.63;;;15.80;;
74900;SDS011;63461;51.416;6.758;2023-01-23T07:40:23;34.90;;;14.93;;
74900;SDS011;63461;51.416;6.758;2023-01-23T07:42:49;38.03;;;15.40;;
74900;SDS011;63461;51.416;6.758;2023-01-23T07:45:15;40.53;;;15.80;;
74900;SDS011;63461;51.416;6.758;2023-01-23T07:47:41;38.73;;;15.73;;
74900;SDS011;63461;51.416;6.758;2023-01-23T07:50:10;38.70;;;15.67;;
74900;SDS011;63461;51.416;6.758;2023-01-23T07:52:37;35.23;;;15.13;;
74900;SDS011;63461;51.416;6.758;2023-01-23T07:55:04;40.90;;;15.73;;
74900;SDS011;63461;51.416;6.758;2023-01-23T07:57:30;35.27;;;15.20;;
74900;SDS011;63461;51.416;6.758;2023-01-23T07:59:58;38.07;;;15.93;;
74900;SDS011;63461;51.416;6.758;2023-01-23T08:02:24;37.07;;;14.77;;
74900;SDS011;63461;51.416;6.758;2023-01-23T08:04:49;38.90;;;15.83;;
74900;SDS011;63461;51.416;6.758;2023-01-23T08:07:15;39.33;;;15.70;;
74900;SDS011;63461;51.416;6.758;2023-01-23T08:09:41;35.90;;;15.07;;
74900;SDS011;63461;51.416;6.758;2023-01-23T08:12:07;40.37;;;15.53;;
74900;SDS011;63461;51.416;6.758;2023-01-23T08:14:32;37.80;;;14.93;;
74900;SDS011;63461;51.416;6.758;2023-01-23T08:16:59;35.47;;;14.20;;
74900;SDS011;63461;51.416;6.758;2023-01-23T08:19:25;33.83;;;14.10;;
74900;SDS011;63461;51.416;6.758;2023-01-23T08:21:52;38.83;;;15.10;;
74900;SDS011;63461;51.416;6.758;2023-01-23T08:24:18;38.73;;;14.97;;
74900;SDS011;63461;51.416;6.758;2023-01-23T08:26:43;36.00;;;14.03;;
74900;SDS011;63461;51.416;6.758;2023-01-23T08:29:09;39.27;;;15.47;;
74900;SDS011;63461;51.416;6.758;2023-01-23T08:31:36;37.03;;;14.90;;
74900;SDS011;63461;51.416;6.758;2023-01-23T08:34:02;37.03;;;14.73;;
74900;SDS011;63461;51.416;6.758;2023-01-23T08:36:28;37.87;;;14.70;;
74900;SDS011;63461;51.416;6.758;2023-01-23T08:38:55;37.27;;;13.83;;
74900;SDS011;63461;51.416;6.758;2023-01-23T08:41:21;35.87;;;14.97;;
74900;SDS011;63461;51.416;6.758;2023-01-23T08:43:48;36.80;;;14.93;;
74900;SDS011;63461;51.416;6.758;2023-01-23T08:46:14;34.90;;;14.67;;
74900;SDS011;63461;51.416;6.758;2023-01-23T08:48:40;39.57;;;14.80;;
74900;SDS011;63461;51.416;6.758;2023-01-23T08:51:07;39.53;;;14.57;;
74900;SDS011;63461;51.416;6.758;2023-01-23T08:53:35;36.83;;;14.93;;
74900;SDS011;63461;51.416;6.758;2023-01-23T08:56:02;38.53;;;13.93;;
74900;SDS011;63461;51.416;6.758;2023-01-23T08:58:32;38.37;;;14.77;;
74900;SDS011;63461;51.416;6.758;2023-01-23T09:00:59;39.73;;;16.30;;
74900;SDS011;63461;51.416;6.758;2023-01-23T09:03:25;41.50;;;15.33;;
74900;SDS011;63461;51.416;6.758;2023-01-23T09:05:51;36.07;;;14.50;;
74900;SDS011;63461;51.416;6.758;2023-01-23T09:08:16;38.13;;;14.83;;
74900;SDS011;63461;51.416;6.758;2023-01-23T09:10:42;32.43;;;14.60;;
74900;SDS011;63461;51.416;6.758;2023-01-23T09:13:08;39.73;;;15.27;;
74900;SDS011;63461;51.416;6.758;2023-01-23T09:15:36;37.47;;;14.97;;
74900;SDS011;63461;51.416;6.758;2023-01-23T09:18:03;34.77;;;14.53;;
74900;SDS011;63461;51.416;6.758;2023-01-23T09:20:29;43.97;;;15.63;;
74900;SDS011;63461;51.416;6.758;2023-01-23T09:22:55;40.27;;;15.70;;
74900;SDS011;63461;51.416;6.758;2023-01-23T09:25:21;36.13;;;15.13;;
74900;SDS011;63461;51.416;6.758;2023-01-23T09:27:47;35.23;;;15.37;;
74900;SDS011;63461;51.416;6.758;2023-01-23T09:30:12;39.37;;;15.13;;
74900;SDS011;63461;51.416;6.758;2023-01-23T09:32:38;36.87;;;15.40;;
74900;SDS011;63461;51.416;6.758;2023-01-23T09:35:04;32.93;;;14.87;;
74900;SDS011;63461;51.416;6.758;2023-01-23T09:37:30;33.23;;;14.33;;
74900;SDS011;63461;51.416;6.758;2023-01-23T09:40:17;32.73;;;14.03;;
74900;SDS011;63461;51.416;6.758;2023-01-23T09:42:46;29.37;;;13.23;;
74900;SDS011;63461;51.416;6.758;2023-01-23T09:45:15;30.97;;;13.13;;
74900;SDS011;63461;51.416;6.758;2023-01-23T09:47:47;30.20;;;12.10;;
74900;SDS011;63461;51.416;6.758;2023-01-23T09:50:19;27.67;;;12.43;;
74900;SDS011;63461;51.416;6.758;2023-01-23T09:52:54;29.37;;;12.13;;
74900;SDS011;63461;51.416;6.758;2023-01-23T09:55:34;27.03;;;12.67;;
74900;SDS011;63461;51.416;6.758;2023-01-23T09:58:17;26.03;;;11.90;;
74900;SDS011;63461;51.416;6.758;2023-01-23T10:00:49;23.40;;;11.23;;
74900;SDS011;63461;51.416;6.758;2023-01-23T10:03:15;27.53;;;11.70;;
74900;SDS011;63461;51.416;6.758;2023-01-23T10:12:04;26.87;;;11.27;;
74900;SDS011;63461;51.416;6.758;2023-01-23T10:17:43;24.83;;;10.60;;
74900;SDS011;63461;51.416;6.758;2023-01-23T10:20:42;23.50;;;10.60;;
74900;SDS011;63461;51.416;6.758;2023-01-23T10:23:34;21.90;;;9.77;;
74900;SDS011;63461;51.416;6.758;2023-01-23T10:26:11;21.27;;;9.67;;
74900;SDS011;63461;51.416;6.758;2023-01-23T10:28:51;22.07;;;9.93;;
74900;SDS011;63461;51.416;6.758;2023-01-23T10:31:34;19.07;;;9.53;;
74900;SDS011;63461;51.416;6.758;2023-01-23T10:36:45;21.03;;;9.93;;
74900;SDS011;63461;51.416;6.758;2023-01-23T10:39:25;20.87;;;9.80;;
74900;SDS011;63461;51.416;6.758;2023-01-23T10:42:04;22.00;;;9.43;;
74900;SDS011;63461;51.416;6.758;2023-01-23T10:44:34;21.77;;;10.13;;
74900;SDS011;63461;51.416;6.758;2023-01-23T10:47:00;20.23;;;9.83;;
74900;SDS011;63461;51.416;6.758;2023-01-23T10:49:30;21.43;;;9.83;;
74900;SDS011;63461;51.416;6.758;2023-01-23T10:51:59;19.43;;;9.30;;
74900;SDS011;63461;51.416;6.758;2023-01-23T10:54:26;22.47;;;10.03;;
74900;SDS011;63461;51.416;6.758;2023-01-23T10:56:54;18.03;;;9.13;;
74900;SDS011;63461;51.416;6.758;2023-01-23T11:04:37;22.97;;;10.10;;
74900;SDS011;63461;51.416;6.758;2023-01-23T11:07:05;29.60;;;13.13;;
74900;SDS011;63461;51.416;6.758;2023-01-23T11:10:37;26.30;;;11.83;;
74900;SDS011;63461;51.416;6.758;2023-01-23T11:12:33;38.20;;;16.37;;
74900;SDS011;63461;51.416;6.758;2023-01-23T11:15:20;67.03;;;28.70;;
74900;SDS011;63461;51.416;6.758;2023-01-23T11:17:52;29.83;;;13.27;;
74900;SDS011;63461;51.416;6.758;2023-01-23T11:31:07;21.27;;;9.30;;
74900;SDS011;63461;51.416;6.758;2023-01-23T11:33:40;24.20;;;9.77;;
74900;SDS011;63461;51.416;6.758;2023-01-23T11:38:59;21.53;;;8.83;;
74900;SDS011;63461;51.416;6.758;2023-01-23T11:41:30;20.43;;;8.97;;
74900;SDS011;63461;51.416;6.758;2023-01-23T11:43:58;16.43;;;8.10;;
74900;SDS011;63461;51.416;6.758;2023-01-23T11:46:35;19.10;;;8.13;;
74900;SDS011;63461;51.416;6.758;2023-01-23T11:49:35;21.37;;;9.63;;
74900;SDS011;63461;51.416;6.758;2023-01-23T11:55:28;21.50;;;10.03;;
74900;SDS011;63461;51.416;6.758;2023-01-23T11:58:06;16.53;;;7.40;;
74900;SDS011;63461;51.416;6.758;2023-01-23T12:09:22;19.00;;;9.20;;
74900;SDS011;63461;51.416;6.758;2023-01-23T12:12:06;16.33;;;8.10;;
74900;SDS011;63461;51.416;6.758;2023-01-23T12:15:05;16.67;;;8.43;;
74900;SDS011;63461;51.416;6.758;2023-01-23T12:17:51;13.07;;;6.70;;
74900;SDS011;63461;51.416;6.758;2023-01-23T12:20:24;15.30;;;7.07;;
74900;SDS011;63461;51.416;6.758;2023-01-23T12:25:38;13.43;;;6.77;;
74900;SDS011;63461;51.416;6.758;2023-01-23T12:55:16;12.70;;;5.97;;
74900;SDS011;63461;51.416;6.758;2023-01-23T12:57:51;13.27;;;6.90;;
74900;SDS011;63461;51.416;6.758;2023-01-23T13:08:33;18.27;;;7.57;;
74900;SDS011;63461;51.416;6.758;2023-01-23T13:14:23;15.23;;;7.63;;
74900;SDS011;63461;51.416;6.758;2023-01-23T13:16:49;17.10;;;8.40;;
74900;SDS011;63461;51.416;6.758;2023-01-23T13:19:21;20.80;;;8.17;;
74900;SDS011;63461;51.416;6.758;2023-01-23T13:22:31;15.47;;;7.17;;
74900;SDS011;63461;51.416;6.758;2023-01-23T13:25:02;15.10;;;7.53;;
74900;SDS011;63461;51.416;6.758;2023-01-23T13:32:47;14.90;;;6.87;;
74900;SDS011;63461;51.416;6.758;2023-01-23T13:49:24;18.70;;;9.83;;
74900;SDS011;63461;51.416;6.758;2023-01-23T13:52:24;20.73;;;10.13;;
74900;SDS011;63461;51.416;6.758;2023-01-23T13:55:17;20.47;;;10.47;;
74900;SDS011;63461;51.416;6.758;2023-01-23T13:58:06;20.03;;;9.67;;
74900;SDS011;63461;51.416;6.758;2023-01-23T14:00:37;19.03;;;9.90;;
74900;SDS011;63461;51.416;6.758;2023-01-23T14:03:12;20.00;;;9.87;;
74900;SDS011;63461;51.416;6.758;2023-01-23T14:06:10;20.20;;;9.50;;
74900;SDS011;63461;51.416;6.758;2023-01-23T14:08:46;20.73;;;11.13;;
74900;SDS011;63461;51.416;6.758;2023-01-23T14:11:17;20.87;;;10.23;;
74900;SDS011;63461;51.416;6.758;2023-01-23T14:13:47;22.37;;;10.23;;
74900;SDS011;63461;51.416;6.758;2023-01-23T14:16:15;17.70;;;7.50;;
74900;SDS011;63461;51.416;6.758;2023-01-23T14:18:52;22.07;;;10.53;;
74900;SDS011;63461;51.416;6.758;2023-01-23T14:23:50;21.60;;;11.10;;
74900;SDS011;63461;51.416;6.758;2023-01-23T14:26:19;23.33;;;11.63;;
74900;SDS011;63461;51.416;6.758;2023-01-23T14:31:29;22.60;;;11.43;;
74900;SDS011;63461;51.416;6.758;2023-01-23T14:34:00;27.07;;;12.17;;
74900;SDS011;63461;51.416;6.758;2023-01-23T14:36:28;24.20;;;10.77;;
74900;SDS011;63461;51.416;6.758;2023-01-23T14:38:56;29.43;;;13.57;;
74900;SDS011;63461;51.416;6.758;2023-01-23T14:41:27;29.23;;;13.80;;
74900;SDS011;63461;51.416;6.758;2023-01-23T14:43:56;28.70;;;13.90;;
74900;SDS011;63461;51.416;6.758;2023-01-23T14:46:35;27.73;;;14.50;;
74900;SDS011;63461;51.416;6.758;2023-01-23T14:49:04;31.73;;;14.30;;
74900;SDS011;63461;51.416;6.758;2023-01-23T14:51:32;32.80;;;15.57;;
74900;SDS011;63461;51.416;6.758;2023-01-23T14:54:03;29.73;;;14.40;;
74900;SDS011;63461;51.416;6.758;2023-01-23T14:56:32;28.63;;;14.60;;
74900;SDS011;63461;51.416;6.758;2023-01-23T14:59:05;27.07;;;13.30;;
74900;SDS011;63461;51.416;6.758;2023-01-23T15:01:32;26.33;;;13.57;;
74900;SDS011;63461;51.416;6.758;2023-01-23T15:04:03;29.17;;;13.63;;
74900;SDS011;63461;51.416;6.758;2023-01-23T15:06:31;27.87;;;14.13;;
74900;SDS011;63461;51.416;6.758;2023-01-23T15:09:06;33.00;;;15.07;;
74900;SDS011;63461;51.416;6.758;2023-01-23T15:11:40;28.10;;;14.07;;
74900;SDS011;63461;51.416;6.758;2023-01-23T15:14:13;27.23;;;14.07;;
74900;SDS011;63461;51.416;6.758;2023-01-23T15:16:50;27.67;;;13.97;;
74900;SDS011;63461;51.416;6.758;2023-01-23T15:19:24;30.03;;;14.30;;
74900;SDS011;63461;51.416;6.758;2023-01-23T15:21:50;32.70;;;14.93;;
74900;SDS011;63461;51.416;6.758;2023-01-23T15:24:31;27.20;;;13.23;;
74900;SDS011;63461;51.416;6.758;2023-01-23T15:29:30;26.80;;;13.03;;
74900;SDS011;63461;51.416;6.758;2023-01-23T15:31:57;25.63;;;13.00;;
74900;SDS011;63461;51.416;6.758;2023-01-23T15:39:38;22.80;;;11.10;;
74900;SDS011;63461;51.416;6.758;2023-01-23T15:44:36;37.43;;;17.03;;
74900;SDS011;63461;51.416;6.758;2023-01-23T15:47:02;26.97;;;14.33;;
74900;SDS011;63461;51.416;6.758;2023-01-23T15:49:32;32.30;;;14.83;;
74900;SDS011;63461;51.416;6.758;2023-01-23T15:52:00;38.43;;;17.73;;
74900;SDS011;63461;51.416;6.758;2023-01-23T15:54:40;27.70;;;13.20;;
74900;SDS011;63461;51.416;6.758;2023-01-23T15:57:06;23.77;;;11.47;;
74900;SDS011;63461;51.416;6.758;2023-01-23T15:59:35;22.13;;;11.50;;
74900;SDS011;63461;51.416;6.758;2023-01-23T16:02:01;22.33;;;10.63;;
74900;SDS011;63461;51.416;6.758;2023-01-23T16:04:27;23.43;;;10.77;;
74900;SDS011;63461;51.416;6.758;2023-01-23T16:06:53;18.67;;;9.97;;
74900;SDS011;63461;51.416;6.758;2023-01-23T16:11:51;21.37;;;9.90;;
74900;SDS011;63461;51.416;6.758;2023-01-23T16:14:17;19.53;;;9.37;;
74900;SDS011;63461;51.416;6.758;2023-01-23T16:16:44;17.53;;;8.80;;
74900;SDS011;63461;51.416;6.758;2023-01-23T16:19:10;17.93;;;9.03;;
74900;SDS011;63461;51.416;6.758;2023-01-23T16:21:36;15.53;;;8.50;;
74900;SDS011;63461;51.416;6.758;2023-01-23T16:24:02;17.10;;;8.73;;
74900;SDS011;63461;51.416;6.758;2023-01-23T16:26:28;17.03;;;8.50;;
74900;SDS011;63461;51.416;6.758;2023-01-23T16:28:55;15.57;;;7.93;;
74900;SDS011;63461;51.416;6.758;2023-01-23T16:31:21;14.00;;;7.57;;
74900;SDS011;63461;51.416;6.758;2023-01-23T16:33:47;14.97;;;7.83;;
74900;SDS011;63461;51.416;6.758;2023-01-23T16:36:14;16.97;;;7.73;;
74900;SDS011;63461;51.416;6.758;2023-01-23T16:38:51;13.30;;;7.73;;
74900;SDS011;63461;51.416;6.758;2023-01-23T16:41:20;16.80;;;7.57;;
74900;SDS011;63461;51.416;6.758;2023-01-23T16:43:47;16.90;;;8.27;;
74900;SDS011;63461;51.416;6.758;2023-01-23T16:46:13;15.63;;;8.30;;
74900;SDS011;63461;51.416;6.758;2023-01-23T16:48:39;15.93;;;8.00;;
74900;SDS011;63461;51.416;6.758;2023-01-23T16:53:36;15.47;;;7.23;;
74900;SDS011;63461;51.416;6.758;2023-01-23T16:56:05;14.83;;;7.70;;